Time;durP1;ratioP1;P1;durP2;ratioP2;P2;SDS_P1;SDS_P2;PMS_P1;PMS_P2;Temp;Humidity;BMP_temperature;BMP_pressure;BME280_temperature;BME280_humidity;BME280_pressure;Samples;Min_cycle;Max_cycle;Signal;HPM_P1;HPM_P2
2024/02/15 18:17:34;;;;;;;;;2.00;2.00;;;;;21.66;45.68;100590.56;6282888;22;46988;-80
2024/02/15 18:19:59;;;;;;;;;2.00;2.00;;;;;22.13;46.06;100661.88;6332494;22;45177;-76
2024/02/15 18:22:27;;;;;;;;;1.00;1.00;;;;;22.11;45.48;100665.72;6336205;22;45295;-76
2024/02/15 18:24:54;;;;;;;;;1.67;1.00;;;;;22.12;45.41;100656.78;6336252;22;45418;-79
2024/02/15 18:27:20;;;;;;;;;2.33;2.33;;;;;22.13;45.57;100653.94;6308027;22;45933;-76
2024/02/15 18:29:46;;;;;;;;;2.00;2.00;;;;;22.16;45.72;100652.75;6336147;22;45391;-75
2024/02/15 18:32:13;;;;;;;;;2.00;2.00;;;;;22.11;46.14;100658.59;6336676;22;45263;-75
2024/02/15 18:34:39;;;;;;;;;2.00;2.00;;;;;22.10;45.81;100658.78;6335925;22;45174;-76
2024/02/15 18:37:06;;;;;;;;;2.00;2.00;;;;;22.12;45.82;100656.78;6336588;22;45264;-78
2024/02/15 18:39:33;;;;;;;;;1.00;1.00;;;;;22.14;45.54;100660.06;6335930;22;45713;-78
2024/02/15 18:42:01;;;;;;;;;4.00;2.33;;;;;22.11;46.30;100648.00;6335742;22;45291;-76
2024/02/15 18:44:27;;;;;;;;;2.00;2.00;;;;;22.24;45.78;100667.72;6336656;22;45252;-77
2024/02/15 18:46:52;;;;;;;;;3.33;1.00;;;;;22.28;46.53;100677.75;6336352;22;46530;-74
2024/02/15 18:49:18;;;;;;;;;2.00;2.00;;;;;22.17;46.46;100663.16;6335908;22;45300;-78
2024/02/15 18:51:44;;;;;;;;;3.67;1.67;;;;;22.22;46.45;100659.13;6337113;22;45277;-73
2024/02/15 18:54:09;;;;;;;;;3.00;2.00;;;;;22.15;46.56;100648.44;6336789;22;45231;-80
2024/02/15 18:56:35;;;;;;;;;2.33;1.00;;;;;22.25;46.39;100666.72;6336117;22;50944;-76
2024/02/15 18:59:06;;;;;;;;;2.00;2.00;;;;;22.33;45.99;100666.59;6336707;22;45205;-77
2024/02/15 19:01:32;;;;;;;;;3.00;3.00;;;;;22.27;46.18;100670.81;6336493;22;45363;-78
2024/02/15 19:04:00;;;;;;;;;2.00;2.00;;;;;22.37;46.15;100673.19;6336414;22;45276;-85
2024/02/15 19:06:26;;;;;;;;;2.00;1.00;;;;;22.21;46.27;100636.28;6336809;22;46063;-79
2024/02/15 19:08:51;;;;;;;;;1.00;1.00;;;;;22.38;46.55;100660.72;6336914;22;45237;-77
2024/02/15 19:11:16;;;;;;;;;2.00;2.00;;;;;22.36;46.46;100652.97;6336996;22;45387;-84
2024/02/15 19:13:42;;;;;;;;;2.33;2.00;;;;;22.39;46.04;100654.41;6335809;22;53354;-77
2024/02/15 19:16:07;;;;;;;;;3.67;2.00;;;;;22.39;46.34;100660.53;6335872;22;46021;-76
2024/02/15 19:18:35;;;;;;;;;3.00;3.00;;;;;22.41;46.29;100665.66;6335683;22;45400;-76
2024/02/15 19:21:03;;;;;;;;;3.67;2.00;;;;;22.42;46.54;100677.09;6336929;22;45292;-75
2024/02/15 19:23:29;;;;;;;;;3.00;3.00;;;;;22.35;46.38;100659.25;6336307;22;45260;-73
2024/02/15 19:25:55;;;;;;;;;3.00;3.00;;;;;22.40;46.40;100669.31;6334101;22;47031;-77
2024/02/15 19:28:20;;;;;;;;;5.67;3.33;;;;;22.43;46.19;100668.94;6335966;22;45221;-80
2024/02/15 19:30:48;;;;;;;;;2.67;2.00;;;;;22.38;46.35;100669.50;6336279;22;45248;-88
2024/02/15 19:33:13;;;;;;;;;1.33;1.33;;;;;22.25;46.27;100633.06;6336204;22;45323;-84
2024/02/15 19:35:41;;;;;;;;;3.00;2.33;;;;;22.40;45.99;100659.53;6336183;22;46097;-84
2024/02/15 19:38:06;;;;;;;;;3.00;2.00;;;;;22.46;45.99;100654.47;6336516;22;45348;-84
2024/02/15 19:40:32;;;;;;;;;4.67;2.00;;;;;22.46;46.57;100657.97;6307555;22;63513;-82
2024/02/15 19:42:58;;;;;;;;;3.00;3.00;;;;;22.46;46.24;100662.44;6336335;22;45661;-85
2024/02/15 19:45:24;;;;;;;;;2.00;2.00;;;;;22.30;46.51;100627.22;6336004;22;46134;-83
2024/02/15 19:47:51;;;;;;;;;5.00;2.67;;;;;22.47;46.52;100650.84;6335618;22;45246;-80
2024/02/15 19:50:21;;;;;;;;;2.33;2.00;;;;;22.48;46.51;100657.78;6336905;22;45237;-83
2024/02/15 19:52:47;;;;;;;;;3.00;2.00;;;;;22.48;46.39;100660.44;6337382;22;45283;-84
2024/02/15 19:55:14;;;;;;;;;2.00;2.00;;;;;22.36;46.33;100645.00;6335839;22;47491;-74
2024/02/15 19:57:39;;;;;;;;;2.33;2.00;;;;;22.43;45.97;100666.28;6335839;22;45311;-84
2024/02/15 20:00:07;;;;;;;;;2.33;2.33;;;;;22.49;46.01;100670.03;6337004;22;45258;-80
2024/02/15 20:02:32;;;;;;;;;2.00;2.00;;;;;22.38;46.18;100647.47;6337551;22;45446;-86
2024/02/15 20:04:57;;;;;;;;;1.00;1.00;;;;;22.41;46.45;100649.75;6337796;22;48392;-86
2024/02/15 20:07:28;;;;;;;;;3.00;2.00;;;;;22.50;46.46;100661.06;6337433;22;45377;-84
2024/02/15 20:09:54;;;;;;;;;3.00;3.00;;;;;22.40;46.46;100643.63;6337557;22;45249;-87
2024/02/15 20:12:19;;;;;;;;;3.00;2.67;;;;;22.49;45.92;100648.81;6336742;22;45424;-86
2024/02/15 20:14:44;;;;;;;;;4.00;3.00;;;;;22.52;46.18;100651.91;6336828;22;49619;-86
2024/02/15 20:17:10;;;;;;;;;1.00;1.00;;;;;22.52;46.47;100656.38;6308469;22;45763;-83
2024/02/15 20:19:35;;;;;;;;;1.00;1.00;;;;;22.52;46.52;100657.22;6336548;22;45390;-84
2024/02/15 20:22:01;;;;;;;;;2.67;1.67;;;;;22.49;45.97;100651.47;6336564;22;45333;-86
2024/02/15 20:24:26;;;;;;;;;6.67;2.00;;;;;22.40;46.28;100638.31;6335914;22;55924;-85
2024/02/15 20:26:52;;;;;;;;;2.00;2.00;;;;;22.54;46.32;100667.63;6307731;22;45193;-74
2024/02/15 20:29:20;;;;;;;;;5.00;3.00;;;;;22.44;47.03;100652.03;6335552;22;45270;-76
2024/02/15 20:31:46;;;;;;;;;4.67;3.33;;;;;22.58;47.33;100660.13;6335534;22;45218;-76
2024/02/15 20:34:11;;;;;;;;;8.33;4.67;;;;;22.48;47.79;100640.03;6335692;22;46080;-76
2024/02/15 20:36:37;;;;;;;;;8.00;5.67;;;;;22.61;48.36;100655.25;6336460;22;45197;-75
2024/02/15 20:39:02;;;;;;;;;4.33;4.00;;;;;22.64;48.26;100648.75;6336064;22;45248;-75
2024/02/15 20:41:29;;;;;;;;;5.00;5.00;;;;;22.59;48.41;100645.84;6336424;22;45388;-76
2024/02/15 20:43:55;;;;;;;;;6.33;5.00;;;;;22.63;48.39;100658.56;6335878;22;46016;-75
2024/02/15 20:46:29;;;;;;;;;7.00;5.67;;;;;22.59;48.48;100651.16;6335366;22;45256;-75
2024/02/15 20:48:55;;;;;;;;;6.67;5.33;;;;;22.55;48.60;100641.94;6335938;22;45161;-75
2024/02/15 20:51:21;;;;;;;;;5.00;5.00;;;;;22.59;48.60;100641.38;6335647;22;45234;-74
2024/02/15 20:53:50;;;;;;;;;7.67;4.00;;;;;22.62;48.92;100654.25;6335788;22;46901;-76
2024/02/15 20:56:17;;;;;;;;;5.67;4.00;;;;;22.67;49.05;100655.50;6335577;22;45307;-74
2024/02/15 20:58:44;;;;;;;;;4.67;3.00;;;;;22.68;48.46;100662.47;6335801;22;45750;-74
2024/02/15 21:01:12;;;;;;;;;7.00;5.00;;;;;22.67;48.61;100655.50;6335068;22;45304;-74
2024/02/15 21:03:37;;;;;;;;;4.67;4.00;;;;;22.69;48.58;100654.31;6336157;22;47179;-81
2024/02/15 21:06:03;;;;;;;;;3.00;2.67;;;;;22.70;48.83;100653.34;6335637;22;45251;-83
2024/02/15 21:08:31;;;;;;;;;5.00;2.67;;;;;22.73;48.66;100652.13;6335904;22;45335;-82
2024/02/15 21:10:59;;;;;;;;;4.00;4.00;;;;;22.56;48.93;100625.81;6335466;22;45454;-77
2024/02/15 21:13:25;;;;;;;;;4.00;4.00;;;;;22.73;48.45;100637.06;6335458;22;45389;-81
2024/02/15 21:15:50;;;;;;;;;4.00;4.00;;;;;22.59;48.59;100624.63;6335344;22;45183;-88
2024/02/15 21:18:15;;;;;;;;;6.00;3.67;;;;;22.49;48.76;100611.69;6306338;22;50173;-88
2024/02/15 21:20:41;;;;;;;;;3.00;3.00;;;;;22.49;48.73;100611.69;6335579;22;45267;-87
2024/02/15 21:23:09;;;;;;;;;5.67;3.00;;;;;22.73;48.89;100652.13;6335154;22;46339;-84
2024/02/15 21:25:34;;;;;;;;;5.00;4.00;;;;;22.14;48.84;100562.84;6335156;22;45359;-82
2024/02/15 21:28:00;;;;;;;;;2.67;2.00;;;;;22.13;48.86;100560.38;6335960;22;45300;-81
2024/02/15 21:30:28;;;;;;;;;2.00;2.00;;;;;22.51;48.29;100613.16;6334521;22;45404;-80
2024/02/15 21:32:54;;;;;;;;;4.67;3.67;;;;;22.63;48.80;100640.00;6335275;22;45434;-80
2024/02/15 21:35:19;;;;;;;;;3.67;3.33;;;;;22.73;48.79;100644.19;6307149;22;45232;-80
2024/02/15 21:37:45;;;;;;;;;3.00;3.00;;;;;22.72;49.02;100651.31;6334787;22;45289;-80
2024/02/15 21:40:12;;;;;;;;;3.33;3.33;;;;;22.00;48.69;100534.56;6335386;22;45237;-80
2024/02/15 21:42:37;;;;;;;;;5.00;2.00;;;;;22.73;48.87;100657.44;6307360;22;47487;-84
2024/02/15 21:45:05;;;;;;;;;2.67;2.67;;;;;22.38;48.64;100597.09;6335330;22;45318;-79
2024/02/15 21:47:30;;;;;;;;;3.33;2.33;;;;;22.72;48.62;100648.66;6335729;22;45354;-80
2024/02/15 21:49:56;;;;;;;;;2.67;2.67;;;;;22.32;49.25;100588.09;6334454;22;59716;-84
2024/02/15 21:52:22;;;;;;;;;2.00;2.00;;;;;22.11;49.02;100567.69;6335735;22;46082;-83
2024/02/15 21:54:47;;;;;;;;;4.00;3.00;;;;;22.60;49.03;100626.28;6335237;22;45357;-82
2024/02/15 21:57:15;;;;;;;;;3.00;3.00;;;;;21.95;48.91;100517.41;6335607;22;45297;-82
2024/02/15 21:59:40;;;;;;;;;3.00;3.00;;;;;22.47;49.12;100609.25;6334728;22;45292;-82
2024/02/15 22:02:11;;;;;;;;;2.00;1.33;;;;;22.71;48.69;100643.56;6335234;22;50877;-82
2024/02/15 22:04:37;;;;;;;;;2.33;2.00;;;;;22.57;48.46;100624.00;6334717;22;45651;-79
2024/02/15 22:07:03;;;;;;;;;3.00;3.00;;;;;22.72;48.61;100647.84;6335650;22;45244;-83
2024/02/15 22:09:30;;;;;;;;;4.33;3.67;;;;;22.51;49.24;100617.63;6335182;22;45382;-85
2024/02/15 22:11:56;;;;;;;;;3.00;3.00;;;;;22.61;48.81;100626.09;6335716;22;45272;-87
2024/02/15 22:14:21;;;;;;;;;3.33;3.00;;;;;22.72;48.61;100642.53;6335303;22;45316;-85
2024/02/15 22:16:47;;;;;;;;;2.33;1.00;;;;;22.36;49.18;100573.44;6335727;22;45347;-85
2024/02/15 22:19:12;;;;;;;;;3.00;3.00;;;;;22.50;48.59;100600.09;6306822;22;45327;-84
2024/02/15 22:21:37;;;;;;;;;3.00;3.00;;;;;22.52;49.00;100596.25;6335149;22;45347;-83
2024/02/15 22:24:03;;;;;;;;;3.33;2.00;;;;;22.68;49.07;100625.34;6335356;22;53769;-84
2024/02/15 22:26:28;;;;;;;;;3.00;2.00;;;;;22.73;48.71;100628.28;6335495;22;45336;-85
2024/02/15 22:28:54;;;;;;;;;3.67;3.00;;;;;22.73;48.72;100617.66;6335295;22;54998;-85
2024/02/15 22:31:21;;;;;;;;;3.33;2.67;;;;;22.64;48.45;100611.63;6335818;22;49059;-86
2024/02/15 22:33:46;;;;;;;;;2.33;2.33;;;;;22.69;49.10;100627.00;6308015;22;45374;-84
2024/02/15 22:36:27;;;;;;;;;3.00;2.67;;;;;22.74;48.69;100637.88;6335659;22;45236;-85
2024/02/15 22:38:52;;;;;;;;;2.00;2.00;;;;;22.48;48.86;100602.91;6335180;22;45424;-82
2024/02/15 22:41:18;;;;;;;;;3.33;2.33;;;;;22.73;49.06;100634.41;6334452;22;47019;-85
2024/02/15 22:43:44;;;;;;;;;5.33;2.67;;;;;22.74;49.10;100632.56;6334000;22;45360;-79
2024/02/15 22:46:10;;;;;;;;;3.00;3.00;;;;;22.67;48.69;100621.03;6334988;22;45315;-81
2024/02/15 22:48:37;;;;;;;;;2.00;2.00;;;;;22.56;48.88;100606.47;6334390;22;45296;-82
2024/02/15 22:51:04;;;;;;;;;4.00;2.00;;;;;22.74;48.94;100627.28;6335739;22;46042;-84
2024/02/15 22:53:30;;;;;;;;;1.33;1.00;;;;;22.76;48.96;100635.84;6336133;22;45463;-88
2024/02/15 22:55:56;;;;;;;;;4.00;3.00;;;;;22.73;47.96;100645.00;6335782;22;45373;-72
2024/02/15 22:58:24;;;;;;;;;3.00;3.00;;;;;22.74;47.40;100638.69;6335747;22;45422;-72
2024/02/15 23:00:49;;;;;;;;;2.67;2.67;;;;;22.66;47.27;100622.88;6335824;22;47214;-73
2024/02/15 23:03:15;;;;;;;;;5.67;3.00;;;;;22.62;46.93;100630.38;6334421;22;45368;-74
2024/02/15 23:05:41;;;;;;;;;3.33;2.67;;;;;22.67;47.31;100640.41;6336271;22;45416;-73
2024/02/15 23:08:07;;;;;;;;;4.33;4.00;;;;;22.67;47.31;100644.91;6336515;22;45405;-73
2024/02/15 23:10:33;;;;;;;;;1.67;1.67;;;;;22.59;46.77;100638.72;6335619;22;45967;-74
2024/02/15 23:12:59;;;;;;;;;3.33;2.67;;;;;22.61;46.95;100635.88;6336812;22;45206;-74
2024/02/15 23:15:26;;;;;;;;;4.00;3.00;;;;;22.62;46.62;100646.28;6308649;22;45280;-74
2024/02/15 23:17:51;;;;;;;;;4.00;3.00;;;;;22.60;46.96;100648.31;6336483;22;45186;-74
2024/02/15 23:20:16;;;;;;;;;4.00;2.00;;;;;22.60;46.94;100650.97;6336157;22;51546;-74
2024/02/15 23:22:42;;;;;;;;;2.33;2.33;;;;;22.58;47.19;100653.00;6336725;22;45387;-73
2024/02/15 23:25:07;;;;;;;;;2.67;2.33;;;;;22.51;46.83;100634.34;6336634;22;45379;-73
2024/02/15 23:27:34;;;;;;;;;2.00;2.00;;;;;22.50;46.96;100646.00;6336264;22;45349;-74
2024/02/15 23:30:02;;;;;;;;;2.00;2.00;;;;;22.55;46.82;100645.41;6336318;22;46784;-74
2024/02/15 23:32:28;;;;;;;;;2.33;2.00;;;;;22.54;46.61;100645.59;6336204;22;45278;-74
2024/02/15 23:34:54;;;;;;;;;3.00;3.00;;;;;22.52;47.28;100649.25;6336353;22;45158;-74
2024/02/15 23:40:19;;;;;;;;;0.00;0.00;;;;;22.48;47.21;100637.38;6336026;22;45725;-74
2024/02/15 23:42:44;;;;;;;;;2.67;2.67;;;;;22.50;47.09;100638.03;6336127;22;45331;-74
2024/02/15 23:45:10;;;;;;;;;3.00;3.00;;;;;22.48;47.04;100634.72;6336283;22;45331;-74
2024/02/15 23:47:37;;;;;;;;;4.00;4.00;;;;;22.50;47.24;100637.22;6336240;22;45326;-74
2024/02/15 23:50:03;;;;;;;;;5.00;2.00;;;;;22.42;46.99;100626.72;6336177;22;46399;-74
2024/02/15 23:52:28;;;;;;;;;2.00;2.00;;;;;22.48;47.00;100645.31;6336236;22;45208;-74
2024/02/15 23:54:54;;;;;;;;;3.00;3.00;;;;;22.47;46.58;100649.00;6335981;22;45200;-74
2024/02/15 23:57:20;;;;;;;;;3.00;3.00;;;;;22.47;46.78;100656.97;6336341;22;50056;-74
2024/02/15 23:59:46;;;;;;;;;3.00;3.00;;;;;22.47;46.96;100658.78;6308062;22;47266;-74
